sensor_id;sensor_type;location;lat;lon;timestamp;pressure;altitude;pressure_sealevel;temperature;humidity
27613;BME280;15036;48.094;-1.690;2022-12-18T00:03:50;101488.09;;;2.99;57.79
27613;BME280;15036;48.094;-1.690;2022-12-18T00:06:16;101487.03;;;3.11;57.67
27613;BME280;15036;48.094;-1.690;2022-12-18T00:08:43;101488.41;;;3.05;57.46
27613;BME280;15036;48.094;-1.690;2022-12-18T00:11:11;101487.44;;;3.06;57.72
27613;BME280;15036;48.094;-1.690;2022-12-18T00:13:37;101488.41;;;3.05;57.31
27613;BME280;15036;48.094;-1.690;2022-12-18T00:16:08;101489.00;;;3.09;57.54
27613;BME280;15036;48.094;-1.690;2022-12-18T00:18:34;101471.63;;;3.02;57.42
27613;BME280;15036;48.094;-1.690;2022-12-18T00:21:02;101469.28;;;3.08;57.47
27613;BME280;15036;48.094;-1.690;2022-12-18T00:23:28;101469.06;;;3.21;57.19
27613;BME280;15036;48.094;-1.690;2022-12-18T00:25:54;101471.56;;;3.13;57.43
27613;BME280;15036;48.094;-1.690;2022-12-18T00:28:23;101479.41;;;2.95;57.91
27613;BME280;15036;48.094;-1.690;2022-12-18T00:30:48;101478.09;;;3.10;57.62
27613;BME280;15036;48.094;-1.690;2022-12-18T00:33:16;101478.94;;;3.11;57.53
27613;BME280;15036;48.094;-1.690;2022-12-18T00:35:42;101476.69;;;2.95;57.78
27613;BME280;15036;48.094;-1.690;2022-12-18T00:38:07;101474.38;;;3.11;57.21
27613;BME280;15036;48.094;-1.690;2022-12-18T00:40:32;101471.06;;;2.98;57.76
27613;BME280;15036;48.094;-1.690;2022-12-18T00:42:58;101463.53;;;3.02;57.61
27613;BME280;15036;48.094;-1.690;2022-12-18T00:45:29;101464.66;;;2.99;57.73
27613;BME280;15036;48.094;-1.690;2022-12-18T00:47:54;101461.13;;;2.78;58.23
27613;BME280;15036;48.094;-1.690;2022-12-18T00:50:21;101454.78;;;3.09;57.62
27613;BME280;15036;48.094;-1.690;2022-12-18T00:52:47;101448.31;;;2.71;58.09
27613;BME280;15036;48.094;-1.690;2022-12-18T00:55:12;101441.09;;;3.01;57.82
27613;BME280;15036;48.094;-1.690;2022-12-18T00:57:38;101444.34;;;2.95;57.76
27613;BME280;15036;48.094;-1.690;2022-12-18T01:00:05;101446.63;;;3.20;57.62
27613;BME280;15036;48.094;-1.690;2022-12-18T01:02:31;101445.38;;;3.04;57.33
27613;BME280;15036;48.094;-1.690;2022-12-18T01:04:56;101446.50;;;3.01;57.84
27613;BME280;15036;48.094;-1.690;2022-12-18T01:07:22;101441.09;;;3.01;57.59
27613;BME280;15036;48.094;-1.690;2022-12-18T01:09:47;101427.06;;;3.28;57.12
27613;BME280;15036;48.094;-1.690;2022-12-18T01:12:12;101440.00;;;3.04;57.29
27613;BME280;15036;48.094;-1.690;2022-12-18T01:14:38;101424.72;;;3.14;56.95
27613;BME280;15036;48.094;-1.690;2022-12-18T01:17:03;101434.88;;;3.01;57.36
27613;BME280;15036;48.094;-1.690;2022-12-18T01:19:29;101428.34;;;3.03;57.14
27613;BME280;15036;48.094;-1.690;2022-12-18T01:21:54;101422.16;;;3.12;57.29
27613;BME280;15036;48.094;-1.690;2022-12-18T01:24:20;101420.75;;;3.18;57.12
27613;BME280;15036;48.094;-1.690;2022-12-18T01:26:45;101422.16;;;3.12;57.13
27613;BME280;15036;48.094;-1.690;2022-12-18T01:29:11;101416.22;;;2.88;57.45
27613;BME280;15036;48.094;-1.690;2022-12-18T01:31:36;101426.78;;;3.01;57.51
27613;BME280;15036;48.094;-1.690;2022-12-18T01:34:04;101432.19;;;2.80;57.34
27613;BME280;15036;48.094;-1.690;2022-12-18T01:36:32;101441.91;;;3.13;57.26
27613;BME280;15036;48.094;-1.690;2022-12-18T01:39:11;101458.47;;;3.08;57.26
27613;BME280;15036;48.094;-1.690;2022-12-18T01:41:37;101465.47;;;2.90;57.56
27613;BME280;15036;48.094;-1.690;2022-12-18T01:50:13;101445.28;;;2.85;57.90
27613;BME280;15036;48.094;-1.690;2022-12-18T01:52:42;101432.59;;;2.76;57.97
27613;BME280;15036;48.094;-1.690;2022-12-18T01:55:10;101424.69;;;3.04;57.38
27613;BME280;15036;48.094;-1.690;2022-12-18T01:57:37;101415.59;;;3.05;57.32
27613;BME280;15036;48.094;-1.690;2022-12-18T02:00:10;101423.03;;;3.13;56.89
27613;BME280;15036;48.094;-1.690;2022-12-18T02:02:36;101428.78;;;2.99;57.51
27613;BME280;15036;48.094;-1.690;2022-12-18T02:05:02;101436.94;;;2.67;58.07
27613;BME280;15036;48.094;-1.690;2022-12-18T02:10:20;101442.06;;;2.91;57.78
27613;BME280;15036;48.094;-1.690;2022-12-18T02:13:18;101443.16;;;3.09;57.21
27613;BME280;15036;48.094;-1.690;2022-12-18T02:18:37;101446.84;;;3.08;57.20
27613;BME280;15036;48.094;-1.690;2022-12-18T02:21:25;101451.69;;;3.14;56.98
27613;BME280;15036;48.094;-1.690;2022-12-18T02:26:46;101450.88;;;3.23;56.93
27613;BME280;15036;48.094;-1.690;2022-12-18T02:29:24;101457.91;;;3.05;57.52
27613;BME280;15036;48.094;-1.690;2022-12-18T02:31:56;101441.47;;;3.17;57.05
27613;BME280;15036;48.094;-1.690;2022-12-18T02:34:25;101430.78;;;3.06;57.25
27613;BME280;15036;48.094;-1.690;2022-12-18T02:36:54;101426.44;;;3.15;57.24
27613;BME280;15036;48.094;-1.690;2022-12-18T02:39:21;101411.56;;;3.20;56.78
27613;BME280;15036;48.094;-1.690;2022-12-18T02:41:47;101418.63;;;2.91;57.88
27613;BME280;15036;48.094;-1.690;2022-12-18T02:44:13;101427.22;;;3.06;57.48
27613;BME280;15036;48.094;-1.690;2022-12-18T02:49:12;101415.91;;;3.12;57.23
27613;BME280;15036;48.094;-1.690;2022-12-18T02:51:51;101405.16;;;3.21;57.30
27613;BME280;15036;48.094;-1.690;2022-12-18T02:54:34;101393.56;;;3.30;56.92
27613;BME280;15036;48.094;-1.690;2022-12-18T02:57:12;101391.78;;;3.10;57.21
27613;BME280;15036;48.094;-1.690;2022-12-18T02:59:49;101398.63;;;3.24;57.10
27613;BME280;15036;48.094;-1.690;2022-12-18T03:07:42;101388.97;;;3.21;56.77
27613;BME280;15036;48.094;-1.690;2022-12-18T03:10:13;101389.78;;;3.12;56.93
27613;BME280;15036;48.094;-1.690;2022-12-18T03:12:45;101384.97;;;3.16;57.13
27613;BME280;15036;48.094;-1.690;2022-12-18T03:15:17;101391.31;;;3.05;57.31
27613;BME280;15036;48.094;-1.690;2022-12-18T03:18:13;101391.59;;;3.32;56.81
27613;BME280;15036;48.094;-1.690;2022-12-18T03:20:39;101383.88;;;3.18;56.93
27613;BME280;15036;48.094;-1.690;2022-12-18T03:23:12;101392.56;;;3.31;56.86
27613;BME280;15036;48.094;-1.690;2022-12-18T03:25:42;101401.50;;;3.32;56.59
27613;BME280;15036;48.094;-1.690;2022-12-18T03:28:15;101394.69;;;3.28;56.72
27613;BME280;15036;48.094;-1.690;2022-12-18T03:30:43;101394.88;;;3.45;56.58
27613;BME280;15036;48.094;-1.690;2022-12-18T03:33:16;101396.16;;;3.51;56.44
27613;BME280;15036;48.094;-1.690;2022-12-18T03:35:45;101389.63;;;3.44;56.74
27613;BME280;15036;48.094;-1.690;2022-12-18T03:38:10;101383.53;;;3.51;56.33
27613;BME280;15036;48.094;-1.690;2022-12-18T03:41:15;101387.94;;;3.53;56.44
27613;BME280;15036;48.094;-1.690;2022-12-18T03:43:52;101388.78;;;3.63;56.09
27613;BME280;15036;48.094;-1.690;2022-12-18T03:47:04;101403.47;;;3.70;56.09
27613;BME280;15036;48.094;-1.690;2022-12-18T03:54:24;101405.00;;;3.63;56.21
27613;BME280;15036;48.094;-1.690;2022-12-18T03:56:58;101395.34;;;3.60;56.25
27613;BME280;15036;48.094;-1.690;2022-12-18T03:59:26;101401.31;;;3.73;56.05
27613;BME280;15036;48.094;-1.690;2022-12-18T04:01:53;101393.38;;;3.81;55.45
27613;BME280;15036;48.094;-1.690;2022-12-18T04:04:21;101398.78;;;3.72;55.87
27613;BME280;15036;48.094;-1.690;2022-12-18T04:06:48;101400.22;;;3.76;55.99
27613;BME280;15036;48.094;-1.690;2022-12-18T04:09:14;101399.34;;;3.66;55.87
27613;BME280;15036;48.094;-1.690;2022-12-18T04:11:41;101401.81;;;3.38;56.37
27613;BME280;15036;48.094;-1.690;2022-12-18T04:14:09;101411.66;;;3.59;56.45
27613;BME280;15036;48.094;-1.690;2022-12-18T04:16:34;101400.47;;;3.73;56.15
27613;BME280;15036;48.094;-1.690;2022-12-18T04:18:59;101403.47;;;3.89;55.62
27613;BME280;15036;48.094;-1.690;2022-12-18T04:21:25;101398.63;;;3.83;55.86
27613;BME280;15036;48.094;-1.690;2022-12-18T04:23:50;101408.63;;;3.82;55.86
27613;BME280;15036;48.094;-1.690;2022-12-18T04:26:16;101407.84;;;3.61;56.21
27613;BME280;15036;48.094;-1.690;2022-12-18T04:28:41;101413.50;;;3.48;56.58
27613;BME280;15036;48.094;-1.690;2022-12-18T04:31:06;101416.97;;;3.79;56.02
27613;BME280;15036;48.094;-1.690;2022-12-18T04:33:32;101418.97;;;3.96;55.63
27613;BME280;15036;48.094;-1.690;2022-12-18T04:35:57;101416.81;;;3.71;55.80
27613;BME280;15036;48.094;-1.690;2022-12-18T04:38:23;101415.25;;;3.69;55.86
27613;BME280;15036;48.094;-1.690;2022-12-18T04:40:48;101414.09;;;3.62;56.20
27613;BME280;15036;48.094;-1.690;2022-12-18T04:43:14;101416.06;;;3.50;56.83
27613;BME280;15036;48.094;-1.690;2022-12-18T04:45:39;101403.22;;;3.82;55.95
27613;BME280;15036;48.094;-1.690;2022-12-18T04:48:05;101403.06;;;3.84;55.92
27613;BME280;15036;48.094;-1.690;2022-12-18T04:50:30;101394.97;;;3.84;56.12
27613;BME280;15036;48.094;-1.690;2022-12-18T04:52:56;101391.38;;;3.64;56.76
27613;BME280;15036;48.094;-1.690;2022-12-18T04:55:25;101393.53;;;3.89;55.90
27613;BME280;15036;48.094;-1.690;2022-12-18T04:57:51;101404.47;;;3.78;56.13
27613;BME280;15036;48.094;-1.690;2022-12-18T05:00:16;101401.03;;;3.67;56.33
27613;BME280;15036;48.094;-1.690;2022-12-18T05:02:41;101397.94;;;3.81;56.45
27613;BME280;15036;48.094;-1.690;2022-12-18T05:05:07;101393.69;;;4.07;55.52
27613;BME280;15036;48.094;-1.690;2022-12-18T05:07:33;101390.56;;;4.11;55.50
27613;BME280;15036;48.094;-1.690;2022-12-18T05:09:58;101390.88;;;4.18;55.59
27613;BME280;15036;48.094;-1.690;2022-12-18T05:12:24;101385.44;;;4.08;55.51
27613;BME280;15036;48.094;-1.690;2022-12-18T05:14:49;101385.03;;;3.94;56.05
27613;BME280;15036;48.094;-1.690;2022-12-18T05:17:15;101380.31;;;4.24;55.58
27613;BME280;15036;48.094;-1.690;2022-12-18T05:19:40;101376.75;;;4.14;55.55
27613;BME280;15036;48.094;-1.690;2022-12-18T05:22:06;101370.09;;;4.18;55.55
27613;BME280;15036;48.094;-1.690;2022-12-18T05:24:32;101362.41;;;3.95;56.13
27613;BME280;15036;48.094;-1.690;2022-12-18T05:26:57;101359.72;;;4.14;55.68
27613;BME280;15036;48.094;-1.690;2022-12-18T05:29:22;101357.72;;;4.06;55.77
27613;BME280;15036;48.094;-1.690;2022-12-18T05:31:48;101350.75;;;3.94;55.96
27613;BME280;15036;48.094;-1.690;2022-12-18T05:34:13;101348.75;;;3.77;56.31
27613;BME280;15036;48.094;-1.690;2022-12-18T05:36:39;101338.81;;;4.16;55.89
27613;BME280;15036;48.094;-1.690;2022-12-18T05:39:04;101335.97;;;4.27;55.59
27613;BME280;15036;48.094;-1.690;2022-12-18T05:41:29;101334.81;;;4.39;55.40
27613;BME280;15036;48.094;-1.690;2022-12-18T05:43:55;101326.28;;;4.15;56.04
27613;BME280;15036;48.094;-1.690;2022-12-18T05:46:20;101320.63;;;4.18;56.12
27613;BME280;15036;48.094;-1.690;2022-12-18T05:48:46;101324.75;;;4.03;56.47
27613;BME280;15036;48.094;-1.690;2022-12-18T05:51:14;101321.91;;;4.14;56.29
27613;BME280;15036;48.094;-1.690;2022-12-18T05:53:40;101317.47;;;4.13;56.37
27613;BME280;15036;48.094;-1.690;2022-12-18T05:56:08;101320.59;;;4.08;56.58
27613;BME280;15036;48.094;-1.690;2022-12-18T05:58:34;101316.59;;;4.22;56.17
27613;BME280;15036;48.094;-1.690;2022-12-18T06:01:09;101298.00;;;4.19;56.36
27613;BME280;15036;48.094;-1.690;2022-12-18T06:03:34;101303.41;;;4.09;56.82
27613;BME280;15036;48.094;-1.690;2022-12-18T06:06:00;101304.84;;;4.13;56.62
27613;BME280;15036;48.094;-1.690;2022-12-18T06:08:25;101298.41;;;4.33;56.40
27613;BME280;15036;48.094;-1.690;2022-12-18T06:10:51;101297.59;;;4.14;57.05
27613;BME280;15036;48.094;-1.690;2022-12-18T06:13:20;101298.06;;;4.46;56.19
27613;BME280;15036;48.094;-1.690;2022-12-18T06:15:45;101289.13;;;4.46;56.15
27613;BME280;15036;48.094;-1.690;2022-12-18T06:18:11;101293.81;;;4.34;56.26
27613;BME280;15036;48.094;-1.690;2022-12-18T06:20:36;101285.59;;;4.35;56.80
27613;BME280;15036;48.094;-1.690;2022-12-18T06:23:05;101288.38;;;4.53;56.40
27613;BME280;15036;48.094;-1.690;2022-12-18T06:25:30;101277.31;;;4.47;56.42
27613;BME280;15036;48.094;-1.690;2022-12-18T06:27:55;101288.94;;;4.57;56.57
27613;BME280;15036;48.094;-1.690;2022-12-18T06:30:21;101288.78;;;4.12;57.36
27613;BME280;15036;48.094;-1.690;2022-12-18T06:32:48;101289.56;;;4.41;56.85
27613;BME280;15036;48.094;-1.690;2022-12-18T06:35:13;101292.34;;;4.59;56.57
27613;BME280;15036;48.094;-1.690;2022-12-18T06:37:38;101288.88;;;4.29;57.80
27613;BME280;15036;48.094;-1.690;2022-12-18T06:40:05;101291.00;;;4.26;57.96
27613;BME280;15036;48.094;-1.690;2022-12-18T06:42:30;101292.66;;;4.46;57.48
27613;BME280;15036;48.094;-1.690;2022-12-18T06:44:57;101287.50;;;4.62;57.10
27613;BME280;15036;48.094;-1.690;2022-12-18T06:47:22;101285.00;;;4.78;56.92
27613;BME280;15036;48.094;-1.690;2022-12-18T06:49:47;101292.03;;;4.71;57.12
27613;BME280;15036;48.094;-1.690;2022-12-18T06:52:13;101277.50;;;4.72;57.32
27613;BME280;15036;48.094;-1.690;2022-12-18T06:54:38;101277.00;;;4.59;57.92
27613;BME280;15036;48.094;-1.690;2022-12-18T06:57:03;101277.69;;;4.52;58.19
27613;BME280;15036;48.094;-1.690;2022-12-18T06:59:29;101287.22;;;4.56;58.47
27613;BME280;15036;48.094;-1.690;2022-12-18T07:01:54;101285.22;;;4.67;58.18
27613;BME280;15036;48.094;-1.690;2022-12-18T07:04:19;101291.88;;;4.73;58.18
27613;BME280;15036;48.094;-1.690;2022-12-18T07:06:45;101299.97;;;4.73;58.42
27613;BME280;15036;48.094;-1.690;2022-12-18T07:09:10;101291.91;;;4.63;58.95
27613;BME280;15036;48.094;-1.690;2022-12-18T07:11:35;101291.91;;;4.54;59.05
27613;BME280;15036;48.094;-1.690;2022-12-18T07:14:01;101295.91;;;4.59;59.19
27613;BME280;15036;48.094;-1.690;2022-12-18T07:16:26;101304.06;;;4.86;58.84
27613;BME280;15036;48.094;-1.690;2022-12-18T07:18:54;101305.16;;;4.93;58.70
27613;BME280;15036;48.094;-1.690;2022-12-18T07:21:21;101297.59;;;4.97;58.76
27613;BME280;15036;48.094;-1.690;2022-12-18T07:23:47;101280.25;;;4.90;58.56
27613;BME280;15036;48.094;-1.690;2022-12-18T07:26:14;101281.41;;;4.87;59.13
27613;BME280;15036;48.094;-1.690;2022-12-18T07:28:41;101285.22;;;4.94;59.45
27613;BME280;15036;48.094;-1.690;2022-12-18T07:31:09;101288.91;;;4.93;59.40
27613;BME280;15036;48.094;-1.690;2022-12-18T07:33:35;101289.63;;;4.95;59.38
27613;BME280;15036;48.094;-1.690;2022-12-18T07:36:06;101285.50;;;5.01;59.70
27613;BME280;15036;48.094;-1.690;2022-12-18T07:38:31;101282.69;;;4.83;60.23
27613;BME280;15036;48.094;-1.690;2022-12-18T07:41:04;101284.91;;;4.97;60.12
27613;BME280;15036;48.094;-1.690;2022-12-18T07:43:30;101274.66;;;5.01;59.77
27613;BME280;15036;48.094;-1.690;2022-12-18T07:45:56;101285.66;;;4.90;60.67
27613;BME280;15036;48.094;-1.690;2022-12-18T07:48:21;101280.78;;;5.03;60.88
27613;BME280;15036;48.094;-1.690;2022-12-18T07:50:47;101276.25;;;4.94;61.23
27613;BME280;15036;48.094;-1.690;2022-12-18T07:53:12;101265.03;;;5.16;60.43
27613;BME280;15036;48.094;-1.690;2022-12-18T07:55:37;101265.84;;;4.99;61.14
27613;BME280;15036;48.094;-1.690;2022-12-18T07:58:03;101265.34;;;5.13;61.02
27613;BME280;15036;48.094;-1.690;2022-12-18T08:00:30;101251.44;;;5.25;60.90
27613;BME280;15036;48.094;-1.690;2022-12-18T08:02:56;101251.59;;;5.24;60.89
27613;BME280;15036;48.094;-1.690;2022-12-18T08:05:22;101258.22;;;5.12;61.65
27613;BME280;15036;48.094;-1.690;2022-12-18T08:07:47;101256.56;;;5.46;61.02
27613;BME280;15036;48.094;-1.690;2022-12-18T08:10:13;101265.97;;;5.24;61.45
27613;BME280;15036;48.094;-1.690;2022-12-18T08:12:38;101270.97;;;5.19;61.75
27613;BME280;15036;48.094;-1.690;2022-12-18T08:15:05;101272.22;;;5.25;61.92
27613;BME280;15036;48.094;-1.690;2022-12-18T08:17:30;101274.91;;;5.25;62.38
27613;BME280;15036;48.094;-1.690;2022-12-18T08:19:56;101266.06;;;5.33;61.98
27613;BME280;15036;48.094;-1.690;2022-12-18T08:22:21;101269.06;;;5.47;62.12
27613;BME280;15036;48.094;-1.690;2022-12-18T08:24:47;101264.69;;;5.46;62.29
27613;BME280;15036;48.094;-1.690;2022-12-18T08:27:12;101254.19;;;5.16;62.80
27613;BME280;15036;48.094;-1.690;2022-12-18T08:29:37;101249.34;;;5.55;62.39
27613;BME280;15036;48.094;-1.690;2022-12-18T08:32:03;101239.13;;;5.49;62.45
27613;BME280;15036;48.094;-1.690;2022-12-18T08:34:29;101240.47;;;5.45;62.86
27613;BME280;15036;48.094;-1.690;2022-12-18T08:36:56;101239.22;;;5.57;62.95
27613;BME280;15036;48.094;-1.690;2022-12-18T08:39:22;101240.94;;;5.58;62.54
27613;BME280;15036;48.094;-1.690;2022-12-18T08:41:47;101249.28;;;5.47;63.24
27613;BME280;15036;48.094;-1.690;2022-12-18T08:44:32;101247.50;;;5.38;63.91
27613;BME280;15036;48.094;-1.690;2022-12-18T08:47:07;101255.47;;;5.57;63.79
27613;BME280;15036;48.094;-1.690;2022-12-18T08:49:33;101264.69;;;5.64;63.59
27613;BME280;15036;48.094;-1.690;2022-12-18T08:51:59;101259.63;;;5.69;63.26
27613;BME280;15036;48.094;-1.690;2022-12-18T08:54:25;101252.44;;;5.77;63.68
27613;BME280;15036;48.094;-1.690;2022-12-18T08:56:51;101253.25;;;5.87;63.54
27613;BME280;15036;48.094;-1.690;2022-12-18T08:59:17;101259.66;;;6.04;63.01
27613;BME280;15036;48.094;-1.690;2022-12-18T09:01:43;101263.38;;;5.85;63.46
27613;BME280;15036;48.094;-1.690;2022-12-18T09:04:09;101258.03;;;5.93;63.52
27613;BME280;15036;48.094;-1.690;2022-12-18T09:06:35;101262.53;;;5.85;63.83
27613;BME280;15036;48.094;-1.690;2022-12-18T09:09:01;101263.00;;;5.98;63.71
27613;BME280;15036;48.094;-1.690;2022-12-18T09:11:28;101255.56;;;6.00;63.48
27613;BME280;15036;48.094;-1.690;2022-12-18T09:13:54;101266.16;;;5.76;64.26
27613;BME280;15036;48.094;-1.690;2022-12-18T09:16:21;101269.97;;;6.26;63.43
27613;BME280;15036;48.094;-1.690;2022-12-18T09:18:47;101263.91;;;6.32;63.23
27613;BME280;15036;48.094;-1.690;2022-12-18T09:21:18;101278.44;;;6.23;63.69
27613;BME280;15036;48.094;-1.690;2022-12-18T09:23:51;101278.06;;;6.44;63.08
27613;BME280;15036;48.094;-1.690;2022-12-18T09:26:17;101275.31;;;6.36;63.37
27613;BME280;15036;48.094;-1.690;2022-12-18T09:28:43;101276.69;;;6.40;63.37
27613;BME280;15036;48.094;-1.690;2022-12-18T09:31:11;101279.13;;;6.51;63.04
27613;BME280;15036;48.094;-1.690;2022-12-18T09:33:37;101280.22;;;6.14;64.42
27613;BME280;15036;48.094;-1.690;2022-12-18T09:36:04;101284.50;;;6.43;63.83
27613;BME280;15036;48.094;-1.690;2022-12-18T09:38:33;101285.50;;;6.67;63.14
27613;BME280;15036;48.094;-1.690;2022-12-18T09:41:04;101281.88;;;6.59;63.25
27613;BME280;15036;48.094;-1.690;2022-12-18T09:43:42;101283.66;;;6.76;63.06
27613;BME280;15036;48.094;-1.690;2022-12-18T09:46:16;101272.66;;;6.77;62.87
27613;BME280;15036;48.094;-1.690;2022-12-18T09:48:47;101276.56;;;6.75;62.90
27613;BME280;15036;48.094;-1.690;2022-12-18T09:51:20;101273.16;;;6.73;63.09
27613;BME280;15036;48.094;-1.690;2022-12-18T09:53:53;101263.81;;;6.67;63.21
27613;BME280;15036;48.094;-1.690;2022-12-18T09:56:22;101264.31;;;6.71;63.40
27613;BME280;15036;48.094;-1.690;2022-12-18T09:58:59;101258.94;;;6.79;63.26
27613;BME280;15036;48.094;-1.690;2022-12-18T10:01:27;101246.03;;;6.73;63.48
27613;BME280;15036;48.094;-1.690;2022-12-18T10:03:54;101242.78;;;6.69;63.93
27613;BME280;15036;48.094;-1.690;2022-12-18T10:06:38;101236.63;;;6.59;64.46
27613;BME280;15036;48.094;-1.690;2022-12-18T10:12:36;101226.66;;;6.68;64.60
27613;BME280;15036;48.094;-1.690;2022-12-18T10:15:22;101238.09;;;6.54;64.86
27613;BME280;15036;48.094;-1.690;2022-12-18T10:20:46;101228.53;;;6.67;64.89
27613;BME280;15036;48.094;-1.690;2022-12-18T10:23:25;101227.78;;;6.91;64.09
27613;BME280;15036;48.094;-1.690;2022-12-18T10:28:23;101205.22;;;6.90;64.14
27613;BME280;15036;48.094;-1.690;2022-12-18T10:30:49;101205.88;;;6.84;64.56
27613;BME280;15036;48.094;-1.690;2022-12-18T10:33:17;101202.13;;;6.85;64.82
27613;BME280;15036;48.094;-1.690;2022-12-18T10:35:48;101202.31;;;6.84;64.99
27613;BME280;15036;48.094;-1.690;2022-12-18T10:43:24;101207.53;;;6.77;64.88
27613;BME280;15036;48.094;-1.690;2022-12-18T10:48:24;101200.78;;;6.89;65.21
27613;BME280;15036;48.094;-1.690;2022-12-18T10:50:51;101203.19;;;6.92;65.22
27613;BME280;15036;48.094;-1.690;2022-12-18T10:53:23;101200.66;;;6.91;65.22
27613;BME280;15036;48.094;-1.690;2022-12-18T10:55:49;101203.78;;;6.70;65.79
27613;BME280;15036;48.094;-1.690;2022-12-18T10:58:31;101196.06;;;6.91;65.56
27613;BME280;15036;48.094;-1.690;2022-12-18T11:03:45;101182.59;;;6.74;66.21
27613;BME280;15036;48.094;-1.690;2022-12-18T11:06:13;101182.50;;;6.99;65.50
27613;BME280;15036;48.094;-1.690;2022-12-18T11:08:40;101176.59;;;7.04;65.42
27613;BME280;15036;48.094;-1.690;2022-12-18T11:11:17;101171.53;;;7.17;65.27
27613;BME280;15036;48.094;-1.690;2022-12-18T11:14:02;101178.16;;;7.15;65.30
27613;BME280;15036;48.094;-1.690;2022-12-18T11:16:30;101176.78;;;7.11;65.37
27613;BME280;15036;48.094;-1.690;2022-12-18T11:19:20;101171.03;;;7.30;65.17
27613;BME280;15036;48.094;-1.690;2022-12-18T11:21:48;101160.84;;;7.32;65.02
27613;BME280;15036;48.094;-1.690;2022-12-18T11:26:49;101158.59;;;7.11;66.15
27613;BME280;15036;48.094;-1.690;2022-12-18T11:29:24;101156.59;;;7.05;66.31
27613;BME280;15036;48.094;-1.690;2022-12-18T11:32:13;101148.47;;;7.29;65.67
27613;BME280;15036;48.094;-1.690;2022-12-18T11:34:46;101144.75;;;7.38;65.39
27613;BME280;15036;48.094;-1.690;2022-12-18T11:37:15;101138.09;;;7.41;65.35
27613;BME280;15036;48.094;-1.690;2022-12-18T11:39:54;101135.06;;;7.44;65.27
27613;BME280;15036;48.094;-1.690;2022-12-18T11:42:30;101128.59;;;7.53;65.50
27613;BME280;15036;48.094;-1.690;2022-12-18T11:45:08;101118.59;;;7.37;65.95
27613;BME280;15036;48.094;-1.690;2022-12-18T11:47:54;101111.97;;;7.32;66.11
27613;BME280;15036;48.094;-1.690;2022-12-18T11:50:25;101103.84;;;7.40;66.02
27613;BME280;15036;48.094;-1.690;2022-12-18T11:52:51;101089.59;;;7.46;65.89
27613;BME280;15036;48.094;-1.690;2022-12-18T11:55:31;101085.81;;;7.47;66.14
27613;BME280;15036;48.094;-1.690;2022-12-18T12:10:16;101080.56;;;7.29;67.05
27613;BME280;15036;48.094;-1.690;2022-12-18T12:15:43;101071.75;;;7.11;68.24
27613;BME280;15036;48.094;-1.690;2022-12-18T12:21:40;101065.41;;;7.75;66.68
27613;BME280;15036;48.094;-1.690;2022-12-18T12:24:27;101066.09;;;7.69;66.59
27613;BME280;15036;48.094;-1.690;2022-12-18T12:39:46;101043.16;;;7.79;66.67
27613;BME280;15036;48.094;-1.690;2022-12-18T12:42:46;101036.94;;;8.10;66.04
27613;BME280;15036;48.094;-1.690;2022-12-18T12:48:09;101034.97;;;7.96;66.81
27613;BME280;15036;48.094;-1.690;2022-12-18T12:50:40;101031.34;;;8.11;66.27
27613;BME280;15036;48.094;-1.690;2022-12-18T12:53:12;101032.13;;;7.81;67.34
27613;BME280;15036;48.094;-1.690;2022-12-18T12:55:41;101035.44;;;8.07;66.61
27613;BME280;15036;48.094;-1.690;2022-12-18T13:01:14;101031.19;;;8.05;67.25
27613;BME280;15036;48.094;-1.690;2022-12-18T13:04:15;101030.22;;;8.36;66.22
27613;BME280;15036;48.094;-1.690;2022-12-18T13:06:47;101026.44;;;8.45;66.09
27613;BME280;15036;48.094;-1.690;2022-12-18T13:09:16;101019.16;;;8.38;66.27
27613;BME280;15036;48.094;-1.690;2022-12-18T13:11:43;101032.22;;;8.42;66.56
27613;BME280;15036;48.094;-1.690;2022-12-18T13:14:31;101021.69;;;8.70;65.80
27613;BME280;15036;48.094;-1.690;2022-12-18T13:19:49;101041.94;;;8.90;65.42
27613;BME280;15036;48.094;-1.690;2022-12-18T13:22:24;101049.78;;;8.93;65.29
27613;BME280;15036;48.094;-1.690;2022-12-18T13:24:51;101044.75;;;9.05;65.18
27613;BME280;15036;48.094;-1.690;2022-12-18T13:38:22;101011.50;;;9.09;65.42
27613;BME280;15036;48.094;-1.690;2022-12-18T13:45:46;101019.84;;;9.30;65.46
27613;BME280;15036;48.094;-1.690;2022-12-18T13:48:22;101013.41;;;9.23;65.73
27613;BME280;15036;48.094;-1.690;2022-12-18T13:51:00;101000.34;;;9.56;65.25
27613;BME280;15036;48.094;-1.690;2022-12-18T13:56:23;101005.22;;;9.46;65.57
27613;BME280;15036;48.094;-1.690;2022-12-18T14:01:59;100988.13;;;9.52;65.71
27613;BME280;15036;48.094;-1.690;2022-12-18T14:04:28;100984.06;;;9.48;66.06
27613;BME280;15036;48.094;-1.690;2022-12-18T14:07:01;100975.34;;;9.52;65.67
27613;BME280;15036;48.094;-1.690;2022-12-18T14:09:36;100970.66;;;9.46;65.80
27613;BME280;15036;48.094;-1.690;2022-12-18T14:12:02;100953.63;;;9.59;65.41
27613;BME280;15036;48.094;-1.690;2022-12-18T14:14:49;100940.19;;;9.57;65.75
27613;BME280;15036;48.094;-1.690;2022-12-18T14:17:16;100933.13;;;9.63;65.81
27613;BME280;15036;48.094;-1.690;2022-12-18T14:19:47;100955.34;;;9.60;66.36
27613;BME280;15036;48.094;-1.690;2022-12-18T14:22:16;100954.66;;;9.43;67.01
27613;BME280;15036;48.094;-1.690;2022-12-18T14:24:42;100954.38;;;9.53;67.14
27613;BME280;15036;48.094;-1.690;2022-12-18T14:27:25;100946.22;;;9.68;66.61
27613;BME280;15036;48.094;-1.690;2022-12-18T14:29:51;100947.69;;;9.85;66.54
27613;BME280;15036;48.094;-1.690;2022-12-18T14:32:18;100938.03;;;9.82;66.79
27613;BME280;15036;48.094;-1.690;2022-12-18T14:34:55;100926.66;;;9.64;67.25
27613;BME280;15036;48.094;-1.690;2022-12-18T14:37:26;100920.41;;;9.85;66.55
27613;BME280;15036;48.094;-1.690;2022-12-18T14:39:53;100932.16;;;10.00;66.50
27613;BME280;15036;48.094;-1.690;2022-12-18T14:42:19;100925.59;;;9.94;66.42
27613;BME280;15036;48.094;-1.690;2022-12-18T14:44:45;100934.16;;;9.91;66.67
27613;BME280;15036;48.094;-1.690;2022-12-18T14:47:14;100924.28;;;9.90;66.73
27613;BME280;15036;48.094;-1.690;2022-12-18T14:49:41;100928.47;;;10.07;66.19
27613;BME280;15036;48.094;-1.690;2022-12-18T14:52:27;100919.94;;;10.10;66.23
27613;BME280;15036;48.094;-1.690;2022-12-18T14:54:53;100911.38;;;9.99;66.49